Terminal Aerodrome Forecast
Issued by NWS

Home | Current Version | Previous Version | Graphics & Text | Print | Product List | Glossary On
Versions: 1 2 3 4 5 6 7 8 9 10 11 12 13 14 15 16
000
FTUS43 KMPX 282330
TAFRNH
TAF
KRNH 282330Z 0100/0124 18011KT P6SM SCT040 BKN090
     FM010300 19009KT P6SM OVC035
      TEMPO 0104/0106 BKN030
     FM010600 19009KT 6SM -SN OVC025
     FM011000 21006KT P6SM SCT020 BKN040
     FM011500 26008KT P6SM SCT250=

USA.gov is the U.S. government's official web portal to all federal, state and local government web resources and services.